Jackson, MN

16:34 CDT 17. Září 2014 (GMT -0500)
Jackson Municipal | Change Station
CLOSE
Current Station
Letiště
Location: Jackson,
Nadmořská výška: 1447 ft
Poblíž povětrnostní stanice

Výška 1447 ft 43.65 °N, 94.99 °W | Updated 20 minutes ago

Skoro zataženo
Skoro zataženo
75 °F
Pocit jako 75 °F
S
5
Vítr proměnlivý Vítr od jižní

Dnes
Vysoké -- | Nízké -- °F
--% Možnost srážek
Včera
Vysoké -- | Nízké -- °F
Precip. -- inčů
7:01 AM 7:26 PM
Ubývající srpek, 33% visible
Tlak 29.94 inčů
Viditelnost 10.0 mílí
Zataženo Polojasno 6500 ft
Rosný bod 52 °F
Vlhkost 44%
Dešťové srážky 0.00 inčů
Sněhová pokrývka Není k dispozici
UV záření 3 ze 12
Pyl 4.70 ze 12
Kvalita ovzduší Není k dispozici
Flu Activity Není k dispozici
METAR KMJQ 172114Z AUTO 17004KT 10SM SCT065 24/11 A2994 RMK AO2

More Conditions Fewer Conditions

Tlak 29.94 inčů
Viditelnost 10.0 mílí
Zataženo Polojasno 6500 ft
Rosný bod 52 °F
Vlhkost 44%
Dešťové srážky 0.00 inčů
Sněhová pokrývka Není k dispozici
UV záření 3 ze 12
Pyl 4.70 ze 12
Kvalita ovzduší Není k dispozici
Flu Activity Není k dispozici
METAR KMJQ 172114Z AUTO 17004KT 10SM SCT065 24/11 A2994 RMK AO2

More Conditions Fewer Conditions

10-Day Weather Forecast

Almanac

Astronomie

Sep. 17, 2014 Východ Západ
Skutečný čas 07:01 CDT 19:26 CDT
Občanský soumrak 06:32 CDT 19:55 CDT
Námořní soumrak 05:58 CDT 20:28 CDT
Astronomický soumrak 05:23 CDT 21:03 CDT
Měsíc 00:54 CDT 15:44 CDT
Délka denního světla 13h 22m
Délka dne
12h 24m
Tomorrow will be 2m 57s shorter.
Ubývající srpek, 33% of the Moon is Illuminated
Dnes
Ubývající srpek
Zář 24
Nov
Říj 1
První čtvrť
Říj 8
Úplněk
Říj 15
Ubývající

Dnešní extrémy

State Highs State Lows

Community

WunderPhotos

Upload Photos

1,754,170 snímků staženo!

Nearby

Výška sněhu

Station Hloubka Nadmořská výška
Žádný nový sníh nebyl hlášen

Seizmická činnost

Město Distance Mag. Čas & datum
Žádné zemětřesení v okolí nebylo hlášeno
Minimální zobrazený rozsah je 2.5.

Pobřežní teplota vody

Lokalita Teplota
Stanice nic nehlásí

Poblíž povětrnostní stanice